sensor_id;sensor_type;location;lat;lon;timestamp;temperature;humidity
6307;DHT22;3186;54.062;9.962;2023-07-30T00:02:20;18.40;99.90
6307;DHT22;3186;54.062;9.962;2023-07-30T00:04:46;18.40;99.90
6307;DHT22;3186;54.062;9.962;2023-07-30T00:07:13;18.30;99.90
6307;DHT22;3186;54.062;9.962;2023-07-30T00:09:39;18.30;99.90
6307;DHT22;3186;54.062;9.962;2023-07-30T00:12:05;18.30;99.90
6307;DHT22;3186;54.062;9.962;2023-07-30T00:14:32;18.30;99.90
6307;DHT22;3186;54.062;9.962;2023-07-30T00:16:58;18.30;99.90
6307;DHT22;3186;54.062;9.962;2023-07-30T00:19:23;18.30;99.90
6307;DHT22;3186;54.062;9.962;2023-07-30T00:21:49;18.20;99.90
6307;DHT22;3186;54.062;9.962;2023-07-30T00:24:15;18.30;99.90
6307;DHT22;3186;54.062;9.962;2023-07-30T00:26:41;18.20;99.90
6307;DHT22;3186;54.062;9.962;2023-07-30T00:29:06;18.30;99.90
6307;DHT22;3186;54.062;9.962;2023-07-30T00:31:32;18.30;99.90
6307;DHT22;3186;54.062;9.962;2023-07-30T00:33:58;18.30;99.90
6307;DHT22;3186;54.062;9.962;2023-07-30T00:36:24;18.20;99.90
6307;DHT22;3186;54.062;9.962;2023-07-30T00:38:49;18.20;99.90
6307;DHT22;3186;54.062;9.962;2023-07-30T00:41:15;18.10;99.90
6307;DHT22;3186;54.062;9.962;2023-07-30T00:43:41;18.20;99.90
6307;DHT22;3186;54.062;9.962;2023-07-30T00:46:08;18.20;99.90
6307;DHT22;3186;54.062;9.962;2023-07-30T00:48:34;18.20;99.90
6307;DHT22;3186;54.062;9.962;2023-07-30T00:51:01;18.20;99.90
6307;DHT22;3186;54.062;9.962;2023-07-30T00:53:27;18.20;99.90
6307;DHT22;3186;54.062;9.962;2023-07-30T00:55:54;18.20;99.90
6307;DHT22;3186;54.062;9.962;2023-07-30T00:58:21;18.20;99.90
6307;DHT22;3186;54.062;9.962;2023-07-30T01:00:47;18.20;99.90
6307;DHT22;3186;54.062;9.962;2023-07-30T01:03:13;18.20;99.90
6307;DHT22;3186;54.062;9.962;2023-07-30T01:05:40;18.10;99.90
6307;DHT22;3186;54.062;9.962;2023-07-30T01:08:06;18.20;99.90
6307;DHT22;3186;54.062;9.962;2023-07-30T01:10:32;18.20;99.90
6307;DHT22;3186;54.062;9.962;2023-07-30T01:13:03;18.10;99.90
6307;DHT22;3186;54.062;9.962;2023-07-30T01:15:30;18.20;99.90
6307;DHT22;3186;54.062;9.962;2023-07-30T01:17:56;18.20;99.90
6307;DHT22;3186;54.062;9.962;2023-07-30T01:20:22;18.20;99.90
6307;DHT22;3186;54.062;9.962;2023-07-30T01:22:48;18.20;99.90
6307;DHT22;3186;54.062;9.962;2023-07-30T01:25:17;18.20;99.90
6307;DHT22;3186;54.062;9.962;2023-07-30T01:27:49;18.20;99.90
6307;DHT22;3186;54.062;9.962;2023-07-30T01:30:29;18.20;99.90
6307;DHT22;3186;54.062;9.962;2023-07-30T01:32:58;18.20;99.90
6307;DHT22;3186;54.062;9.962;2023-07-30T01:35:27;18.20;99.90
6307;DHT22;3186;54.062;9.962;2023-07-30T01:37:53;18.20;99.90
6307;DHT22;3186;54.062;9.962;2023-07-30T01:40:20;18.20;99.90
6307;DHT22;3186;54.062;9.962;2023-07-30T01:42:47;18.10;99.90
6307;DHT22;3186;54.062;9.962;2023-07-30T01:45:15;18.40;99.90
6307;DHT22;3186;54.062;9.962;2023-07-30T01:47:41;18.00;99.90
6307;DHT22;3186;54.062;9.962;2023-07-30T01:50:07;17.80;99.90
6307;DHT22;3186;54.062;9.962;2023-07-30T01:52:34;17.70;99.90
6307;DHT22;3186;54.062;9.962;2023-07-30T01:55:00;17.70;99.90
6307;DHT22;3186;54.062;9.962;2023-07-30T01:57:27;17.80;99.90
6307;DHT22;3186;54.062;9.962;2023-07-30T01:59:52;17.80;99.90
6307;DHT22;3186;54.062;9.962;2023-07-30T02:02:18;17.90;99.90
6307;DHT22;3186;54.062;9.962;2023-07-30T02:04:44;17.80;99.90
6307;DHT22;3186;54.062;9.962;2023-07-30T02:07:10;17.90;99.90
6307;DHT22;3186;54.062;9.962;2023-07-30T02:09:36;18.00;99.90
6307;DHT22;3186;54.062;9.962;2023-07-30T02:12:03;18.00;99.90
6307;DHT22;3186;54.062;9.962;2023-07-30T02:14:29;18.00;99.90
6307;DHT22;3186;54.062;9.962;2023-07-30T02:17:00;18.10;99.90
6307;DHT22;3186;54.062;9.962;2023-07-30T02:19:26;18.10;99.90
6307;DHT22;3186;54.062;9.962;2023-07-30T02:21:52;18.10;99.90
6307;DHT22;3186;54.062;9.962;2023-07-30T02:24:18;18.10;99.90
6307;DHT22;3186;54.062;9.962;2023-07-30T02:26:43;18.10;99.90
6307;DHT22;3186;54.062;9.962;2023-07-30T02:29:09;18.10;99.90
6307;DHT22;3186;54.062;9.962;2023-07-30T02:31:35;18.10;99.90
6307;DHT22;3186;54.062;9.962;2023-07-30T02:34:01;18.20;99.90
6307;DHT22;3186;54.062;9.962;2023-07-30T02:36:27;18.10;99.90
6307;DHT22;3186;54.062;9.962;2023-07-30T02:38:52;18.10;99.90
6307;DHT22;3186;54.062;9.962;2023-07-30T02:41:19;18.10;99.90
6307;DHT22;3186;54.062;9.962;2023-07-30T02:43:44;18.00;99.90
6307;DHT22;3186;54.062;9.962;2023-07-30T02:46:11;18.00;99.90
6307;DHT22;3186;54.062;9.962;2023-07-30T02:48:37;18.00;99.90
6307;DHT22;3186;54.062;9.962;2023-07-30T02:51:03;18.00;99.90
6307;DHT22;3186;54.062;9.962;2023-07-30T02:53:29;18.00;99.90
6307;DHT22;3186;54.062;9.962;2023-07-30T02:55:55;18.00;99.90
6307;DHT22;3186;54.062;9.962;2023-07-30T02:58:21;18.00;99.90
6307;DHT22;3186;54.062;9.962;2023-07-30T03:00:47;17.90;99.90
6307;DHT22;3186;54.062;9.962;2023-07-30T03:03:13;17.90;99.90
6307;DHT22;3186;54.062;9.962;2023-07-30T03:05:42;17.90;99.90
6307;DHT22;3186;54.062;9.962;2023-07-30T03:08:08;17.90;99.90
6307;DHT22;3186;54.062;9.962;2023-07-30T03:10:35;17.90;99.90
6307;DHT22;3186;54.062;9.962;2023-07-30T03:13:01;19.00;99.90
6307;DHT22;3186;54.062;9.962;2023-07-30T03:15:27;17.80;99.90
6307;DHT22;3186;54.062;9.962;2023-07-30T03:17:53;17.80;99.90
6307;DHT22;3186;54.062;9.962;2023-07-30T03:20:19;17.80;99.90
6307;DHT22;3186;54.062;9.962;2023-07-30T03:22:45;17.70;99.90
6307;DHT22;3186;54.062;9.962;2023-07-30T03:25:11;17.80;99.90
6307;DHT22;3186;54.062;9.962;2023-07-30T03:27:37;17.70;99.90
6307;DHT22;3186;54.062;9.962;2023-07-30T03:30:03;17.70;99.90
6307;DHT22;3186;54.062;9.962;2023-07-30T03:32:30;17.60;99.90
6307;DHT22;3186;54.062;9.962;2023-07-30T03:34:55;17.50;99.90
6307;DHT22;3186;54.062;9.962;2023-07-30T03:37:21;17.60;99.90
6307;DHT22;3186;54.062;9.962;2023-07-30T03:39:47;17.60;99.90
6307;DHT22;3186;54.062;9.962;2023-07-30T03:42:13;17.60;99.90
6307;DHT22;3186;54.062;9.962;2023-07-30T03:44:39;17.60;99.90
6307;DHT22;3186;54.062;9.962;2023-07-30T03:47:04;17.60;99.90
6307;DHT22;3186;54.062;9.962;2023-07-30T03:49:31;17.60;99.90
6307;DHT22;3186;54.062;9.962;2023-07-30T03:51:56;17.60;99.90
6307;DHT22;3186;54.062;9.962;2023-07-30T03:54:22;17.60;99.90
6307;DHT22;3186;54.062;9.962;2023-07-30T03:56:48;17.70;99.90
6307;DHT22;3186;54.062;9.962;2023-07-30T03:59:14;17.60;99.90
6307;DHT22;3186;54.062;9.962;2023-07-30T04:01:40;17.60;99.90
6307;DHT22;3186;54.062;9.962;2023-07-30T04:04:06;17.60;99.90
6307;DHT22;3186;54.062;9.962;2023-07-30T04:06:32;17.60;99.90
6307;DHT22;3186;54.062;9.962;2023-07-30T04:08:58;17.60;99.90
6307;DHT22;3186;54.062;9.962;2023-07-30T04:11:24;17.50;99.90
6307;DHT22;3186;54.062;9.962;2023-07-30T04:13:50;17.60;99.90
6307;DHT22;3186;54.062;9.962;2023-07-30T04:16:16;17.60;99.90
6307;DHT22;3186;54.062;9.962;2023-07-30T04:18:42;17.60;99.90
6307;DHT22;3186;54.062;9.962;2023-07-30T04:21:07;17.70;99.90
6307;DHT22;3186;54.062;9.962;2023-07-30T04:23:33;17.60;99.90
6307;DHT22;3186;54.062;9.962;2023-07-30T04:25:59;17.70;99.90
6307;DHT22;3186;54.062;9.962;2023-07-30T04:28:25;17.60;99.90
6307;DHT22;3186;54.062;9.962;2023-07-30T04:30:51;17.60;99.90
6307;DHT22;3186;54.062;9.962;2023-07-30T04:33:18;17.70;99.90
6307;DHT22;3186;54.062;9.962;2023-07-30T04:35:44;17.70;99.90
6307;DHT22;3186;54.062;9.962;2023-07-30T04:38:10;17.70;99.90
6307;DHT22;3186;54.062;9.962;2023-07-30T04:40:36;17.70;99.90
6307;DHT22;3186;54.062;9.962;2023-07-30T04:43:02;17.70;99.90
6307;DHT22;3186;54.062;9.962;2023-07-30T04:45:28;17.80;99.90
6307;DHT22;3186;54.062;9.962;2023-07-30T04:47:55;17.80;99.90
6307;DHT22;3186;54.062;9.962;2023-07-30T04:50:21;17.80;99.90
6307;DHT22;3186;54.062;9.962;2023-07-30T04:52:47;17.80;99.90
6307;DHT22;3186;54.062;9.962;2023-07-30T04:55:13;17.80;99.90
6307;DHT22;3186;54.062;9.962;2023-07-30T04:57:39;17.80;99.90
6307;DHT22;3186;54.062;9.962;2023-07-30T05:00:06;17.70;99.90
6307;DHT22;3186;54.062;9.962;2023-07-30T05:02:33;17.80;99.90
6307;DHT22;3186;54.062;9.962;2023-07-30T05:05:00;17.80;99.90
6307;DHT22;3186;54.062;9.962;2023-07-30T05:07:25;17.80;99.90
6307;DHT22;3186;54.062;9.962;2023-07-30T05:09:51;17.80;99.90
6307;DHT22;3186;54.062;9.962;2023-07-30T05:12:17;17.80;99.90
6307;DHT22;3186;54.062;9.962;2023-07-30T05:14:43;17.80;99.90
6307;DHT22;3186;54.062;9.962;2023-07-30T05:17:08;17.90;99.90
6307;DHT22;3186;54.062;9.962;2023-07-30T05:19:34;17.90;99.90
6307;DHT22;3186;54.062;9.962;2023-07-30T05:22:00;17.90;99.90
6307;DHT22;3186;54.062;9.962;2023-07-30T05:24:27;17.90;99.90
6307;DHT22;3186;54.062;9.962;2023-07-30T05:26:53;17.90;99.90
6307;DHT22;3186;54.062;9.962;2023-07-30T05:29:19;17.90;99.90
6307;DHT22;3186;54.062;9.962;2023-07-30T05:31:45;18.00;99.90
6307;DHT22;3186;54.062;9.962;2023-07-30T05:34:10;18.00;99.90
6307;DHT22;3186;54.062;9.962;2023-07-30T05:36:36;18.10;99.90
6307;DHT22;3186;54.062;9.962;2023-07-30T05:39:02;18.10;99.90
6307;DHT22;3186;54.062;9.962;2023-07-30T05:41:28;18.10;99.90
6307;DHT22;3186;54.062;9.962;2023-07-30T05:43:54;17.90;99.90
6307;DHT22;3186;54.062;9.962;2023-07-30T05:46:20;18.10;99.90
6307;DHT22;3186;54.062;9.962;2023-07-30T05:48:46;18.10;99.90
6307;DHT22;3186;54.062;9.962;2023-07-30T05:51:11;18.20;99.90
6307;DHT22;3186;54.062;9.962;2023-07-30T05:53:37;18.30;99.90
6307;DHT22;3186;54.062;9.962;2023-07-30T05:56:08;18.30;99.90
6307;DHT22;3186;54.062;9.962;2023-07-30T05:58:34;18.30;99.90
6307;DHT22;3186;54.062;9.962;2023-07-30T06:01:00;18.30;99.90
6307;DHT22;3186;54.062;9.962;2023-07-30T06:03:26;18.40;99.90
6307;DHT22;3186;54.062;9.962;2023-07-30T06:05:52;18.30;99.90
6307;DHT22;3186;54.062;9.962;2023-07-30T06:08:17;18.30;99.90
6307;DHT22;3186;54.062;9.962;2023-07-30T06:10:44;18.40;99.90
6307;DHT22;3186;54.062;9.962;2023-07-30T06:13:10;18.30;99.90
6307;DHT22;3186;54.062;9.962;2023-07-30T06:15:35;18.30;99.90
6307;DHT22;3186;54.062;9.962;2023-07-30T06:18:02;18.50;99.90
6307;DHT22;3186;54.062;9.962;2023-07-30T06:20:29;18.50;99.90
6307;DHT22;3186;54.062;9.962;2023-07-30T06:22:55;18.50;99.90
6307;DHT22;3186;54.062;9.962;2023-07-30T06:25:20;18.50;99.90
6307;DHT22;3186;54.062;9.962;2023-07-30T06:27:47;18.60;99.90
6307;DHT22;3186;54.062;9.962;2023-07-30T06:30:12;18.60;99.90
6307;DHT22;3186;54.062;9.962;2023-07-30T06:32:38;18.60;99.90
6307;DHT22;3186;54.062;9.962;2023-07-30T06:35:05;18.70;99.90
6307;DHT22;3186;54.062;9.962;2023-07-30T06:37:31;18.70;99.90
6307;DHT22;3186;54.062;9.962;2023-07-30T06:39:56;18.70;99.90
6307;DHT22;3186;54.062;9.962;2023-07-30T06:42:22;18.70;99.90
6307;DHT22;3186;54.062;9.962;2023-07-30T06:44:48;18.80;99.90
6307;DHT22;3186;54.062;9.962;2023-07-30T06:47:14;18.80;99.90
6307;DHT22;3186;54.062;9.962;2023-07-30T06:49:40;18.80;99.90
6307;DHT22;3186;54.062;9.962;2023-07-30T06:52:06;18.90;99.90
6307;DHT22;3186;54.062;9.962;2023-07-30T06:54:32;18.90;99.90
6307;DHT22;3186;54.062;9.962;2023-07-30T06:56:58;19.00;99.90
6307;DHT22;3186;54.062;9.962;2023-07-30T06:59:24;19.10;99.90
6307;DHT22;3186;54.062;9.962;2023-07-30T07:01:49;19.20;99.90
6307;DHT22;3186;54.062;9.962;2023-07-30T07:04:15;19.20;99.90
6307;DHT22;3186;54.062;9.962;2023-07-30T07:06:41;19.20;99.90
6307;DHT22;3186;54.062;9.962;2023-07-30T07:09:07;19.30;99.90
6307;DHT22;3186;54.062;9.962;2023-07-30T07:11:33;19.30;99.90
6307;DHT22;3186;54.062;9.962;2023-07-30T07:13:58;19.50;99.90
6307;DHT22;3186;54.062;9.962;2023-07-30T07:16:24;19.50;99.90
6307;DHT22;3186;54.062;9.962;2023-07-30T07:18:50;19.60;99.90
6307;DHT22;3186;54.062;9.962;2023-07-30T07:21:16;19.70;99.90
6307;DHT22;3186;54.062;9.962;2023-07-30T07:23:42;20.10;99.90
6307;DHT22;3186;54.062;9.962;2023-07-30T07:26:08;19.70;99.90
6307;DHT22;3186;54.062;9.962;2023-07-30T07:28:34;19.80;99.90
6307;DHT22;3186;54.062;9.962;2023-07-30T07:31:00;20.10;99.90
6307;DHT22;3186;54.062;9.962;2023-07-30T07:33:26;20.20;99.90
6307;DHT22;3186;54.062;9.962;2023-07-30T07:35:51;20.20;99.90
6307;DHT22;3186;54.062;9.962;2023-07-30T07:38:27;20.20;99.90
6307;DHT22;3186;54.062;9.962;2023-07-30T07:40:53;20.40;99.90
6307;DHT22;3186;54.062;9.962;2023-07-30T07:43:19;20.40;99.90
6307;DHT22;3186;54.062;9.962;2023-07-30T07:45:44;20.70;99.90
6307;DHT22;3186;54.062;9.962;2023-07-30T07:48:10;20.90;99.90
6307;DHT22;3186;54.062;9.962;2023-07-30T07:50:36;21.00;99.90
6307;DHT22;3186;54.062;9.962;2023-07-30T07:53:02;20.90;99.90
6307;DHT22;3186;54.062;9.962;2023-07-30T07:55:28;21.00;99.90
6307;DHT22;3186;54.062;9.962;2023-07-30T07:57:54;20.90;99.90
6307;DHT22;3186;54.062;9.962;2023-07-30T08:00:20;21.00;99.90
6307;DHT22;3186;54.062;9.962;2023-07-30T08:02:45;21.10;99.90
6307;DHT22;3186;54.062;9.962;2023-07-30T08:05:12;21.20;99.90
6307;DHT22;3186;54.062;9.962;2023-07-30T08:07:38;21.30;99.90
6307;DHT22;3186;54.062;9.962;2023-07-30T08:10:05;21.50;99.90
6307;DHT22;3186;54.062;9.962;2023-07-30T08:12:32;21.90;99.90
6307;DHT22;3186;54.062;9.962;2023-07-30T08:14:58;22.10;99.90
6307;DHT22;3186;54.062;9.962;2023-07-30T08:17:25;22.40;99.90
6307;DHT22;3186;54.062;9.962;2023-07-30T08:19:50;22.30;99.90
6307;DHT22;3186;54.062;9.962;2023-07-30T08:22:16;22.20;99.90
6307;DHT22;3186;54.062;9.962;2023-07-30T08:24:42;22.50;99.90
6307;DHT22;3186;54.062;9.962;2023-07-30T08:27:08;22.70;99.90
6307;DHT22;3186;54.062;9.962;2023-07-30T08:29:33;22.90;99.90
6307;DHT22;3186;54.062;9.962;2023-07-30T08:31:59;23.10;99.90
6307;DHT22;3186;54.062;9.962;2023-07-30T08:34:25;23.00;99.90
6307;DHT22;3186;54.062;9.962;2023-07-30T08:36:51;23.20;99.90
6307;DHT22;3186;54.062;9.962;2023-07-30T08:39:17;23.40;99.90
6307;DHT22;3186;54.062;9.962;2023-07-30T08:41:44;23.50;99.90
6307;DHT22;3186;54.062;9.962;2023-07-30T08:44:11;23.60;99.90
6307;DHT22;3186;54.062;9.962;2023-07-30T08:46:37;23.70;99.90
6307;DHT22;3186;54.062;9.962;2023-07-30T08:49:03;23.70;99.90
6307;DHT22;3186;54.062;9.962;2023-07-30T08:51:29;23.70;99.90
6307;DHT22;3186;54.062;9.962;2023-07-30T08:53:57;23.90;99.90
6307;DHT22;3186;54.062;9.962;2023-07-30T08:56:23;24.00;99.90
6307;DHT22;3186;54.062;9.962;2023-07-30T08:58:50;24.10;99.90
6307;DHT22;3186;54.062;9.962;2023-07-30T09:01:18;24.30;99.90
6307;DHT22;3186;54.062;9.962;2023-07-30T09:03:44;24.40;99.90
6307;DHT22;3186;54.062;9.962;2023-07-30T09:06:10;24.20;99.90
6307;DHT22;3186;54.062;9.962;2023-07-30T09:08:35;24.40;99.90
6307;DHT22;3186;54.062;9.962;2023-07-30T09:11:11;24.20;99.90
6307;DHT22;3186;54.062;9.962;2023-07-30T09:13:41;24.20;99.90
6307;DHT22;3186;54.062;9.962;2023-07-30T09:16:11;25.80;99.90
6307;DHT22;3186;54.062;9.962;2023-07-30T09:18:46;24.40;99.90
6307;DHT22;3186;54.062;9.962;2023-07-30T09:21:13;24.40;99.90
6307;DHT22;3186;54.062;9.962;2023-07-30T09:23:46;24.30;99.90
6307;DHT22;3186;54.062;9.962;2023-07-30T09:26:13;24.40;99.90
6307;DHT22;3186;54.062;9.962;2023-07-30T09:28:39;24.50;99.90
6307;DHT22;3186;54.062;9.962;2023-07-30T09:31:07;24.30;99.90
6307;DHT22;3186;54.062;9.962;2023-07-30T09:33:34;24.20;99.90
6307;DHT22;3186;54.062;9.962;2023-07-30T09:36:03;24.20;99.90
6307;DHT22;3186;54.062;9.962;2023-07-30T09:38:29;24.30;99.90
6307;DHT22;3186;54.062;9.962;2023-07-30T09:41:02;24.20;99.90
6307;DHT22;3186;54.062;9.962;2023-07-30T09:43:35;24.20;99.90
6307;DHT22;3186;54.062;9.962;2023-07-30T09:46:06;23.90;99.90
6307;DHT22;3186;54.062;9.962;2023-07-30T09:48:33;23.90;99.90
6307;DHT22;3186;54.062;9.962;2023-07-30T09:51:00;23.90;99.90
6307;DHT22;3186;54.062;9.962;2023-07-30T09:53:30;23.90;99.90
6307;DHT22;3186;54.062;9.962;2023-07-30T09:56:02;23.80;99.90
6307;DHT22;3186;54.062;9.962;2023-07-30T09:58:29;23.40;99.90
6307;DHT22;3186;54.062;9.962;2023-07-30T10:00:57;23.30;99.90
6307;DHT22;3186;54.062;9.962;2023-07-30T10:03:24;23.20;99.90
6307;DHT22;3186;54.062;9.962;2023-07-30T10:05:55;23.20;99.90
6307;DHT22;3186;54.062;9.962;2023-07-30T10:08:24;23.20;99.90
6307;DHT22;3186;54.062;9.962;2023-07-30T10:10:51;23.10;99.90
6307;DHT22;3186;54.062;9.962;2023-07-30T10:13:19;23.10;99.90
6307;DHT22;3186;54.062;9.962;2023-07-30T10:15:46;22.90;99.90
6307;DHT22;3186;54.062;9.962;2023-07-30T10:18:11;22.60;99.90
6307;DHT22;3186;54.062;9.962;2023-07-30T10:20:38;22.80;99.90
6307;DHT22;3186;54.062;9.962;2023-07-30T10:23:05;23.00;99.90
6307;DHT22;3186;54.062;9.962;2023-07-30T10:28:10;23.00;99.90
6307;DHT22;3186;54.062;9.962;2023-07-30T10:30:59;23.10;99.90
6307;DHT22;3186;54.062;9.962;2023-07-30T10:33:44;23.20;99.90
6307;DHT22;3186;54.062;9.962;2023-07-30T10:36:10;23.30;99.90
6307;DHT22;3186;54.062;9.962;2023-07-30T10:38:36;23.30;99.90
6307;DHT22;3186;54.062;9.962;2023-07-30T10:41:09;23.20;99.90
6307;DHT22;3186;54.062;9.962;2023-07-30T10:43:42;23.20;99.90
6307;DHT22;3186;54.062;9.962;2023-07-30T10:46:13;23.40;99.90
6307;DHT22;3186;54.062;9.962;2023-07-30T10:48:40;23.30;99.90
6307;DHT22;3186;54.062;9.962;2023-07-30T10:51:11;23.30;99.90
6307;DHT22;3186;54.062;9.962;2023-07-30T10:53:36;23.50;99.90
6307;DHT22;3186;54.062;9.962;2023-07-30T10:56:06;23.50;99.90
6307;DHT22;3186;54.062;9.962;2023-07-30T10:58:34;23.40;99.90
6307;DHT22;3186;54.062;9.962;2023-07-30T11:01:07;23.70;99.90
6307;DHT22;3186;54.062;9.962;2023-07-30T11:03:34;23.70;99.90
6307;DHT22;3186;54.062;9.962;2023-07-30T11:06:01;23.90;99.90
6307;DHT22;3186;54.062;9.962;2023-07-30T11:10:59;23.80;99.90
6307;DHT22;3186;54.062;9.962;2023-07-30T11:13:26;23.80;99.90
6307;DHT22;3186;54.062;9.962;2023-07-30T11:15:52;23.90;99.90
6307;DHT22;3186;54.062;9.962;2023-07-30T11:18:17;24.00;99.90
6307;DHT22;3186;54.062;9.962;2023-07-30T11:20:43;24.10;99.90
6307;DHT22;3186;54.062;9.962;2023-07-30T11:23:22;24.30;99.90
6307;DHT22;3186;54.062;9.962;2023-07-30T11:25:49;24.40;99.90
6307;DHT22;3186;54.062;9.962;2023-07-30T11:28:33;24.60;99.90
6307;DHT22;3186;54.062;9.962;2023-07-30T11:31:19;24.50;99.90
6307;DHT22;3186;54.062;9.962;2023-07-30T11:33:52;24.30;99.90
6307;DHT22;3186;54.062;9.962;2023-07-30T11:36:24;24.40;99.90
6307;DHT22;3186;54.062;9.962;2023-07-30T11:38:51;24.30;99.90
6307;DHT22;3186;54.062;9.962;2023-07-30T11:41:18;24.30;99.90
6307;DHT22;3186;54.062;9.962;2023-07-30T11:43:45;24.50;99.90
6307;DHT22;3186;54.062;9.962;2023-07-30T11:46:13;24.40;99.90
6307;DHT22;3186;54.062;9.962;2023-07-30T11:48:46;24.50;99.90
6307;DHT22;3186;54.062;9.962;2023-07-30T11:51:23;24.60;99.90
6307;DHT22;3186;54.062;9.962;2023-07-30T11:53:54;25.10;99.90
6307;DHT22;3186;54.062;9.962;2023-07-30T11:58:53;25.50;99.90
6307;DHT22;3186;54.062;9.962;2023-07-30T12:01:19;25.20;99.90
6307;DHT22;3186;54.062;9.962;2023-07-30T12:03:45;25.20;99.90
6307;DHT22;3186;54.062;9.962;2023-07-30T12:06:11;25.00;93.20
6307;DHT22;3186;54.062;9.962;2023-07-30T12:08:37;25.00;99.90
6307;DHT22;3186;54.062;9.962;2023-07-30T12:11:05;25.00;99.90
6307;DHT22;3186;54.062;9.962;2023-07-30T12:13:31;24.90;99.90
6307;DHT22;3186;54.062;9.962;2023-07-30T12:15:57;25.10;99.90
6307;DHT22;3186;54.062;9.962;2023-07-30T12:18:23;25.40;99.90
6307;DHT22;3186;54.062;9.962;2023-07-30T12:20:50;25.40;99.90
6307;DHT22;3186;54.062;9.962;2023-07-30T12:23:16;25.40;99.90
6307;DHT22;3186;54.062;9.962;2023-07-30T12:25:42;25.60;89.10
6307;DHT22;3186;54.062;9.962;2023-07-30T12:28:08;25.80;99.90
6307;DHT22;3186;54.062;9.962;2023-07-30T12:30:34;25.60;99.90
6307;DHT22;3186;54.062;9.962;2023-07-30T12:33:01;25.50;99.90
6307;DHT22;3186;54.062;9.962;2023-07-30T12:35:26;25.70;96.90
6307;DHT22;3186;54.062;9.962;2023-07-30T12:37:52;26.00;99.90
6307;DHT22;3186;54.062;9.962;2023-07-30T12:40:18;25.60;92.20
6307;DHT22;3186;54.062;9.962;2023-07-30T12:42:43;25.80;99.80
6307;DHT22;3186;54.062;9.962;2023-07-30T12:45:09;25.80;97.00
6307;DHT22;3186;54.062;9.962;2023-07-30T12:47:35;26.00;99.90
6307;DHT22;3186;54.062;9.962;2023-07-30T12:50:02;26.00;99.90
6307;DHT22;3186;54.062;9.962;2023-07-30T12:52:28;26.20;99.90
6307;DHT22;3186;54.062;9.962;2023-07-30T12:54:54;26.00;99.90
6307;DHT22;3186;54.062;9.962;2023-07-30T12:57:20;26.00;99.90
6307;DHT22;3186;54.062;9.962;2023-07-30T12:59:45;26.30;99.90
6307;DHT22;3186;54.062;9.962;2023-07-30T13:02:11;26.20;99.90
6307;DHT22;3186;54.062;9.962;2023-07-30T13:04:37;26.30;99.90
6307;DHT22;3186;54.062;9.962;2023-07-30T13:07:02;26.20;92.60
6307;DHT22;3186;54.062;9.962;2023-07-30T13:09:28;25.80;99.90
6307;DHT22;3186;54.062;9.962;2023-07-30T13:11:54;25.90;99.90
6307;DHT22;3186;54.062;9.962;2023-07-30T13:14:20;25.90;99.90
6307;DHT22;3186;54.062;9.962;2023-07-30T13:16:46;25.10;99.90
6307;DHT22;3186;54.062;9.962;2023-07-30T13:19:11;24.80;99.90
6307;DHT22;3186;54.062;9.962;2023-07-30T13:21:37;24.80;99.90
6307;DHT22;3186;54.062;9.962;2023-07-30T13:24:03;25.10;99.90
6307;DHT22;3186;54.062;9.962;2023-07-30T13:26:29;24.80;99.90
6307;DHT22;3186;54.062;9.962;2023-07-30T13:28:54;24.90;99.90
6307;DHT22;3186;54.062;9.962;2023-07-30T13:31:20;25.10;99.90
6307;DHT22;3186;54.062;9.962;2023-07-30T13:33:46;25.10;99.90
6307;DHT22;3186;54.062;9.962;2023-07-30T13:36:13;25.10;99.90
6307;DHT22;3186;54.062;9.962;2023-07-30T13:38:39;25.00;99.90
6307;DHT22;3186;54.062;9.962;2023-07-30T13:41:05;24.90;99.90
6307;DHT22;3186;54.062;9.962;2023-07-30T13:43:32;24.80;99.90
6307;DHT22;3186;54.062;9.962;2023-07-30T13:45:58;24.70;99.90
6307;DHT22;3186;54.062;9.962;2023-07-30T13:48:24;24.60;99.90
6307;DHT22;3186;54.062;9.962;2023-07-30T13:50:50;24.40;99.90
6307;DHT22;3186;54.062;9.962;2023-07-30T13:53:16;24.40;99.90
6307;DHT22;3186;54.062;9.962;2023-07-30T13:55:41;24.40;99.90
6307;DHT22;3186;54.062;9.962;2023-07-30T13:58:08;24.30;99.90
6307;DHT22;3186;54.062;9.962;2023-07-30T14:00:33;24.30;99.90
6307;DHT22;3186;54.062;9.962;2023-07-30T14:02:59;24.20;99.90
6307;DHT22;3186;54.062;9.962;2023-07-30T14:05:25;24.40;99.90
6307;DHT22;3186;54.062;9.962;2023-07-30T14:07:54;23.80;99.90
6307;DHT22;3186;54.062;9.962;2023-07-30T14:10:22;23.60;99.90
6307;DHT22;3186;54.062;9.962;2023-07-30T14:12:48;23.50;99.90
6307;DHT22;3186;54.062;9.962;2023-07-30T14:15:14;23.40;99.90
6307;DHT22;3186;54.062;9.962;2023-07-30T14:17:40;23.40;99.90
6307;DHT22;3186;54.062;9.962;2023-07-30T14:20:07;23.40;99.90
6307;DHT22;3186;54.062;9.962;2023-07-30T14:22:33;23.40;99.90
6307;DHT22;3186;54.062;9.962;2023-07-30T14:24:59;23.30;99.90
6307;DHT22;3186;54.062;9.962;2023-07-30T14:27:25;23.20;99.90
6307;DHT22;3186;54.062;9.962;2023-07-30T14:29:51;23.30;99.90
6307;DHT22;3186;54.062;9.962;2023-07-30T14:32:19;23.30;99.90
6307;DHT22;3186;54.062;9.962;2023-07-30T14:34:44;23.20;99.90
6307;DHT22;3186;54.062;9.962;2023-07-30T14:37:10;23.20;99.90
6307;DHT22;3186;54.062;9.962;2023-07-30T14:39:36;23.00;99.90
6307;DHT22;3186;54.062;9.962;2023-07-30T14:42:01;23.00;99.90
6307;DHT22;3186;54.062;9.962;2023-07-30T14:44:27;23.20;99.90
6307;DHT22;3186;54.062;9.962;2023-07-30T14:46:53;23.10;99.90
6307;DHT22;3186;54.062;9.962;2023-07-30T14:49:19;23.20;99.90
6307;DHT22;3186;54.062;9.962;2023-07-30T14:51:45;23.60;99.90
6307;DHT22;3186;54.062;9.962;2023-07-30T14:54:12;23.60;99.90
6307;DHT22;3186;54.062;9.962;2023-07-30T14:56:38;23.60;99.90
6307;DHT22;3186;54.062;9.962;2023-07-30T14:59:04;23.60;99.90
6307;DHT22;3186;54.062;9.962;2023-07-30T15:01:30;23.70;99.90
6307;DHT22;3186;54.062;9.962;2023-07-30T15:03:56;23.60;99.90
6307;DHT22;3186;54.062;9.962;2023-07-30T15:06:24;23.70;99.90
6307;DHT22;3186;54.062;9.962;2023-07-30T15:08:51;23.70;99.90
6307;DHT22;3186;54.062;9.962;2023-07-30T15:11:17;23.80;99.90
6307;DHT22;3186;54.062;9.962;2023-07-30T15:13:42;23.80;99.90
6307;DHT22;3186;54.062;9.962;2023-07-30T15:16:08;23.80;99.90
6307;DHT22;3186;54.062;9.962;2023-07-30T15:18:34;23.70;99.90
6307;DHT22;3186;54.062;9.962;2023-07-30T15:21:00;23.70;99.90
6307;DHT22;3186;54.062;9.962;2023-07-30T15:23:25;23.70;99.90
6307;DHT22;3186;54.062;9.962;2023-07-30T15:25:51;23.80;99.90
6307;DHT22;3186;54.062;9.962;2023-07-30T15:28:18;23.80;99.90
6307;DHT22;3186;54.062;9.962;2023-07-30T15:30:44;23.70;99.90
6307;DHT22;3186;54.062;9.962;2023-07-30T15:33:10;23.70;99.90
6307;DHT22;3186;54.062;9.962;2023-07-30T15:35:37;23.60;99.90
6307;DHT22;3186;54.062;9.962;2023-07-30T15:38:06;23.50;99.90
6307;DHT22;3186;54.062;9.962;2023-07-30T15:40:33;23.40;99.90
6307;DHT22;3186;54.062;9.962;2023-07-30T15:43:01;23.70;99.90
6307;DHT22;3186;54.062;9.962;2023-07-30T15:45:28;23.40;99.90
6307;DHT22;3186;54.062;9.962;2023-07-30T15:47:53;23.50;99.90
6307;DHT22;3186;54.062;9.962;2023-07-30T15:50:19;23.60;99.90
6307;DHT22;3186;54.062;9.962;2023-07-30T15:52:49;23.40;99.90
6307;DHT22;3186;54.062;9.962;2023-07-30T15:55:15;23.20;99.90
6307;DHT22;3186;54.062;9.962;2023-07-30T15:57:41;23.20;99.90
6307;DHT22;3186;54.062;9.962;2023-07-30T16:00:08;23.10;99.90
6307;DHT22;3186;54.062;9.962;2023-07-30T16:02:43;23.30;99.90
6307;DHT22;3186;54.062;9.962;2023-07-30T16:05:09;23.30;99.90
6307;DHT22;3186;54.062;9.962;2023-07-30T16:07:35;23.10;99.90